Weather observations for the past three days for
Vacaville Nut Tree Airport
Imperial (Metric)
Date Time (pdt) Wind (mph) Vis. (mi.) Weather Sky Cond. Temperature (ºF) Relative Humidity Wind Chill (°F) Heat Index (°F) Pressure Precipitation (in)
Air Dwpt 6 hour altimeter (in) sea level (mb) 1 hr 3 hr 6 hr
Max. Min.
04 09:53 S 5 10.00 Overcast OVC080 61 46.9 60% 29.97 1014.7
04 08:53 S 7 10.00 Fair CLR 57.9 48 70% 29.95 1014.0
04 07:53 Calm 10.00 Fair CLR 55.9 46.9 72% 29.95 1014.0
04 06:53 SE 5 10.00 Overcast OVC080 54 46.9 77% 29.95 1014.0
04 05:53 SW 3 10.00 Partly Cloudy SCT060 52 46 80% 29.93 1013.4
04 04:53 S 5 10.00 Fair CLR 53.1 46 55.9 53.1 77% 29.93 1013.3
04 03:53 Calm 10.00 A Few Clouds FEW065 53.1 46.9 80% 29.93 1013.3
04 02:53 SW 9 G 16 10.00 Mostly Cloudy BKN060 54 48 80% 29.93 1013.5
04 01:53 S 8 10.00 Fair CLR 54 46.9 77% 29.93 1013.5
04 00:53 Vrbl 7 G 18 10.00 Fair CLR 55 46.9 74% 29.94 1013.7
03 23:53 S 7 10.00 Fair CLR 55.9 46.9 72% 29.94 1013.9
03 22:53 S 6 10.00 Fair CLR 57 46.9 68 55.9 69% 29.94 1013.7
03 21:53 S 5 10.00 Fair CLR 57.9 46 65% 29.92 1013.2
03 20:53 SW 9 10.00 Fair CLR 59 46.9 64% 29.9 1012.5
03 19:53 SW 10 G 20 10.00 Fair CLR 61 46 58% 29.89 1012.1
03 18:53 SW 10 10.00 Fair CLR 63 48 58% 29.87 1011.4
03 17:53 SW 8 G 18 10.00 Fair CLR 64.9 48.9 56% 29.87 1011.3
03 16:53 SW 14 G 23 10.00 Fair CLR 68 48 70 62.1 49% 29.87 1011.4
03 15:53 SW 14 G 28 10.00 Fair CLR 68 48 49% 29.86 1011.1
03 14:53 SW 14 G 23 10.00 Fair CLR 70 48 46% 29.88 1011.6
03 13:53 SW 15 G 25 10.00 Fair CLR 69.1 48 47% 29.88 1011.8
03 12:53 SW 14 G 24 10.00 Fair CLR 64.9 46.9 52% 29.89 1011.9
03 11:53 SW 14 G 24 10.00 Fair CLR 64 48 56% 29.9 1012.3
03 10:53 SW 16 G 25 10.00 Fair CLR 63 46.9 63 54 56% 29.89 1012.0
03 09:53 SW 13 G 23 10.00 Fair CLR 59 48 67% 29.87 1011.4
03 08:53 SW 12 G 20 10.00 Fair CLR 57.9 48 70% 29.86 1011.2
03 07:53 SW 13 G 22 10.00 Partly Cloudy SCT110 57 46.9 69% 29.85 1010.7
03 06:53 SW 6 10.00 Mostly Cloudy BKN110 55 46.9 74% 29.83 1009.9
03 05:53 SW 8 10.00 A Few Clouds FEW110 55 46.9 74% 29.81 1009.3
03 04:53 SW 7 10.00 Fair CLR 55 46.9 55.9 54 74% 29.8 1009.2
03 03:53 SW 5 10.00 Fair CLR 55 46.9 74% 29.8 1009.1
03 02:53 SW 7 10.00 Fair CLR 55 48 77% 29.8 1009.1
03 01:53 W 5 10.00 Fair CLR 54 48 80% 29.82 1009.7
03 00:53 SW 12 10.00 Fair CLR 55 48 77% 29.82 1009.6
02 23:53 SW 7 G 16 10.00 Fair CLR 55.9 46.9 72% 29.83 1010.0
02 22:53 SW 9 10.00 Fair CLR 55.9 48 68 55.9 75% 29.84 1010.3
02 21:53 Vrbl 3 10.00 Fair CLR 57 48.9 74% 29.84 1010.5
02 20:53 SW 9 10.00 Fair CLR 57.9 48 70% 29.82 1009.8
02 19:53 S 7 10.00 Fair CLR 61 48.9 65% 29.81 1009.3
02 18:53 S 9 G 20 10.00 Fair CLR 63 50 63% 29.8 1009.0
02 17:53 SW 16 G 28 10.00 Fair CLR 66 51.1 59% 29.8 1009.0
02 16:53 S 13 G 25 10.00 Fair CLR 66.9 52 71.1 61 59% 29.81 1009.3
02 15:53 S 13 G 24 10.00 Fair CLR 68 52 57% 29.84 1010.3
02 14:53 SW 13 G 24 10.00 Fair CLR 70 53.1 55% 29.86 1010.9
02 13:53 SW 14 G 28 10.00 Fair CLR 69.1 52 55% 29.88 1011.8
02 12:53 S 10 G 26 10.00 Fair CLR 66.9 53.1 61% 29.89 1012.1
02 11:53 S 12 G 24 10.00 Fair CLR 63 52 68% 29.89 1012.1
02 10:53 SW 12 G 25 10.00 Fair CLR 63 52 63 55.9 68% 29.89 1012.0
02 09:53 SW 12 G 23 10.00 Fair CLR 57.9 51.1 78% 29.89 1012.2
02 08:53 SW 15 G 23 10.00 Fair CLR 57 50 78% 29.88 1011.7
02 07:53 SW 8 G 24 10.00 Fair CLR 55.9 50 81% 29.86 1011.2
02 06:53 S 8 G 24 10.00 Fair CLR 55.9 48.9 77% 29.85 1010.6
02 05:53 S 3 10.00 Fair CLR 57 46 67% 29.84 1010.2
02 04:53 SW 10 G 20 10.00 Fair CLR 57 46.9 62.1 55.9 69% 29.83 1009.9
02 03:53 SW 12 G 22 10.00 Fair CLR 57 48 72% 29.83 1010.0
02 02:53 S 12 G 18 10.00 Fair CLR 55.9 48 75% 29.84 1010.3
02 01:53 SW 10 10.00 Fair CLR 57 48.9 74% 29.85 1010.7
02 00:53 SW 8 10.00 Fair CLR 59 48.9 69% 29.85 1010.8
01 23:53 SW 13 G 22 10.00 Fair CLR 59 50 72% 29.86 1010.9
01 22:53 SW 6 10.00 Fair CLR 62.1 51.1 82 62.1 67% 29.86 1011.0
01 21:53 SW 6 10.00 Fair CLR 66 52 61% 29.86 1011.1
01 20:53 Vrbl 5 10.00 Fair CLR 68 54 61% 29.84 1010.5
01 19:53 S 3 10.00 Fair CLR 71.1 54 55% 29.82 1009.9
01 18:53 Vrbl 7 10.00 Fair CLR 77 55.9 48% 79 29.82 1009.8
01 17:53 SW 6 10.00 Fair CLR 81 55.9 42% 81 29.82 1009.8
01 16:53 SW 5 10.00 Fair CLR 79 57.9 82 72 49% 80 29.84 1010.3
01 15:53 Vrbl 6 10.00 Fair CLR 81 57.9 45% 81 29.85 1010.8
01 14:53 S 7 10.00 Fair CLR 81 57.9 45% 81 29.89 1011.8
01 13:53 SW 7 10.00 Fair CLR 80.1 53.1 39% 80 29.9 1012.4
01 12:53 Vrbl 6 10.00 Fair CLR 77 55.9 48% 79 29.92 1013.1
01 11:53 SW 7 10.00 Fair CLR 75 55 50% 78 29.94 1013.7
01 10:53 Vrbl 3 10.00 Fair CLR 72 54 72 52 53% 29.95 1014.0
Date Time (pdt) Wind (mph) Vis. (mi.) Weather Sky Cond. Air Dwpt Max. Min. Relative Humidity Wind Chill (°F) Heat Index (°F) altimeter (in) sea level (mb) 1 hr 3 hr 6 hr
6 hour
Temperature (ºF) Pressure Precipitation (in)